sensor_id;sensor_type;location;lat;lon;timestamp;P1;durP1;ratioP1;P2;durP2;ratioP2
74650;SDS011;63169;46.042;14.592;2023-07-02T00:01:27;7.50;;;5.03;;
74650;SDS011;63169;46.042;14.592;2023-07-02T00:03:52;7.32;;;4.53;;
74650;SDS011;63169;46.042;14.592;2023-07-02T00:06:18;9.30;;;5.45;;
74650;SDS011;63169;46.042;14.592;2023-07-02T00:08:43;7.18;;;4.75;;
74650;SDS011;63169;46.042;14.592;2023-07-02T00:11:08;9.98;;;7.32;;
74650;SDS011;63169;46.042;14.592;2023-07-02T00:13:37;10.68;;;6.40;;
74650;SDS011;63169;46.042;14.592;2023-07-02T00:16:03;8.98;;;5.75;;
74650;SDS011;63169;46.042;14.592;2023-07-02T00:18:29;8.20;;;5.10;;
74650;SDS011;63169;46.042;14.592;2023-07-02T00:20:59;11.13;;;5.32;;
74650;SDS011;63169;46.042;14.592;2023-07-02T00:23:28;9.38;;;5.55;;
74650;SDS011;63169;46.042;14.592;2023-07-02T00:25:54;9.73;;;6.75;;
74650;SDS011;63169;46.042;14.592;2023-07-02T00:28:19;12.68;;;7.25;;
74650;SDS011;63169;46.042;14.592;2023-07-02T00:33:10;13.07;;;7.50;;
74650;SDS011;63169;46.042;14.592;2023-07-02T00:35:35;11.85;;;8.07;;
74650;SDS011;63169;46.042;14.592;2023-07-02T00:38:00;16.60;;;7.95;;
74650;SDS011;63169;46.042;14.592;2023-07-02T00:40:26;11.40;;;8.68;;
74650;SDS011;63169;46.042;14.592;2023-07-02T00:42:52;12.25;;;7.15;;
74650;SDS011;63169;46.042;14.592;2023-07-02T00:47:43;11.30;;;7.40;;
74650;SDS011;63169;46.042;14.592;2023-07-02T00:50:09;14.80;;;7.57;;
74650;SDS011;63169;46.042;14.592;2023-07-02T00:52:34;12.07;;;7.47;;
74650;SDS011;63169;46.042;14.592;2023-07-02T00:57:25;17.13;;;7.80;;
74650;SDS011;63169;46.042;14.592;2023-07-02T00:59:54;11.63;;;8.98;;
74650;SDS011;63169;46.042;14.592;2023-07-02T01:04:47;12.57;;;7.63;;
74650;SDS011;63169;46.042;14.592;2023-07-02T01:07:14;12.93;;;7.88;;
74650;SDS011;63169;46.042;14.592;2023-07-02T01:09:40;14.65;;;8.35;;
74650;SDS011;63169;46.042;14.592;2023-07-02T01:12:06;11.98;;;7.28;;
74650;SDS011;63169;46.042;14.592;2023-07-02T01:14:37;13.98;;;8.60;;
74650;SDS011;63169;46.042;14.592;2023-07-02T01:17:04;14.65;;;8.63;;
74650;SDS011;63169;46.042;14.592;2023-07-02T01:19:36;13.45;;;8.70;;
74650;SDS011;63169;46.042;14.592;2023-07-02T01:22:06;13.75;;;7.97;;
74650;SDS011;63169;46.042;14.592;2023-07-02T01:24:32;13.38;;;9.45;;
74650;SDS011;63169;46.042;14.592;2023-07-02T01:29:28;15.93;;;9.18;;
74650;SDS011;63169;46.042;14.592;2023-07-02T01:31:54;16.38;;;8.85;;
74650;SDS011;63169;46.042;14.592;2023-07-02T01:34:19;17.20;;;10.02;;
74650;SDS011;63169;46.042;14.592;2023-07-02T01:36:44;19.60;;;10.10;;
74650;SDS011;63169;46.042;14.592;2023-07-02T01:39:10;18.27;;;11.73;;
74650;SDS011;63169;46.042;14.592;2023-07-02T01:41:43;19.92;;;10.60;;
74650;SDS011;63169;46.042;14.592;2023-07-02T01:44:20;16.20;;;9.77;;
74650;SDS011;63169;46.042;14.592;2023-07-02T01:49:14;16.20;;;9.15;;
74650;SDS011;63169;46.042;14.592;2023-07-02T01:51:40;16.42;;;9.60;;
74650;SDS011;63169;46.042;14.592;2023-07-02T01:54:05;16.90;;;9.88;;
74650;SDS011;63169;46.042;14.592;2023-07-02T01:56:30;17.67;;;9.75;;
74650;SDS011;63169;46.042;14.592;2023-07-02T01:58:56;19.85;;;10.30;;
74650;SDS011;63169;46.042;14.592;2023-07-02T02:01:21;18.42;;;10.43;;
74650;SDS011;63169;46.042;14.592;2023-07-02T02:03:46;20.13;;;10.73;;
74650;SDS011;63169;46.042;14.592;2023-07-02T02:06:12;17.25;;;10.68;;
74650;SDS011;63169;46.042;14.592;2023-07-02T02:08:37;18.00;;;10.70;;
74650;SDS011;63169;46.042;14.592;2023-07-02T02:11:05;16.58;;;9.80;;
74650;SDS011;63169;46.042;14.592;2023-07-02T02:13:31;18.48;;;9.93;;
74650;SDS011;63169;46.042;14.592;2023-07-02T02:15:57;17.83;;;11.77;;
74650;SDS011;63169;46.042;14.592;2023-07-02T02:18:22;17.45;;;10.82;;
74650;SDS011;63169;46.042;14.592;2023-07-02T02:20:47;18.48;;;10.98;;
74650;SDS011;63169;46.042;14.592;2023-07-02T02:23:13;18.73;;;9.27;;
74650;SDS011;63169;46.042;14.592;2023-07-02T02:25:38;17.73;;;11.52;;
74650;SDS011;63169;46.042;14.592;2023-07-02T02:28:03;19.30;;;10.05;;
74650;SDS011;63169;46.042;14.592;2023-07-02T02:30:29;18.23;;;10.77;;
74650;SDS011;63169;46.042;14.592;2023-07-02T02:32:54;16.98;;;9.75;;
74650;SDS011;63169;46.042;14.592;2023-07-02T02:35:19;16.95;;;11.57;;
74650;SDS011;63169;46.042;14.592;2023-07-02T02:37:45;19.02;;;10.38;;
74650;SDS011;63169;46.042;14.592;2023-07-02T02:40:10;17.08;;;10.80;;
74650;SDS011;63169;46.042;14.592;2023-07-02T02:42:36;20.55;;;10.90;;
74650;SDS011;63169;46.042;14.592;2023-07-02T02:45:02;14.25;;;10.73;;
74650;SDS011;63169;46.042;14.592;2023-07-02T02:47:28;12.95;;;9.00;;
74650;SDS011;63169;46.042;14.592;2023-07-02T02:52:18;14.50;;;8.60;;
74650;SDS011;63169;46.042;14.592;2023-07-02T02:54:45;18.17;;;9.32;;
74650;SDS011;63169;46.042;14.592;2023-07-02T02:57:10;16.92;;;9.38;;
74650;SDS011;63169;46.042;14.592;2023-07-02T03:02:01;16.25;;;9.43;;
74650;SDS011;63169;46.042;14.592;2023-07-02T03:04:26;16.05;;;9.38;;
74650;SDS011;63169;46.042;14.592;2023-07-02T03:06:52;16.13;;;9.75;;
74650;SDS011;63169;46.042;14.592;2023-07-02T03:09:18;18.83;;;9.73;;
74650;SDS011;63169;46.042;14.592;2023-07-02T03:14:09;17.00;;;9.30;;
74650;SDS011;63169;46.042;14.592;2023-07-02T03:16:34;18.60;;;10.43;;
74650;SDS011;63169;46.042;14.592;2023-07-02T03:19:00;17.65;;;11.45;;
74650;SDS011;63169;46.042;14.592;2023-07-02T03:21:25;18.05;;;10.27;;
74650;SDS011;63169;46.042;14.592;2023-07-02T03:23:50;18.15;;;10.45;;
74650;SDS011;63169;46.042;14.592;2023-07-02T03:26:16;16.75;;;11.68;;
74650;SDS011;63169;46.042;14.592;2023-07-02T03:28:42;17.05;;;9.75;;
74650;SDS011;63169;46.042;14.592;2023-07-02T03:33:32;14.80;;;9.17;;
74650;SDS011;63169;46.042;14.592;2023-07-02T03:35:58;21.92;;;10.13;;
74650;SDS011;63169;46.042;14.592;2023-07-02T03:38:23;19.50;;;10.52;;
74650;SDS011;63169;46.042;14.592;2023-07-02T03:40:49;17.38;;;11.35;;
74650;SDS011;63169;46.042;14.592;2023-07-02T03:43:14;19.30;;;11.32;;
74650;SDS011;63169;46.042;14.592;2023-07-02T03:45:39;16.55;;;10.38;;
74650;SDS011;63169;46.042;14.592;2023-07-02T03:48:05;18.63;;;11.60;;
74650;SDS011;63169;46.042;14.592;2023-07-02T03:50:30;19.20;;;11.68;;
74650;SDS011;63169;46.042;14.592;2023-07-02T03:52:55;21.33;;;11.02;;
74650;SDS011;63169;46.042;14.592;2023-07-02T03:55:21;17.92;;;10.80;;
74650;SDS011;63169;46.042;14.592;2023-07-02T03:57:46;19.35;;;11.07;;
74650;SDS011;63169;46.042;14.592;2023-07-02T04:00:12;19.02;;;11.35;;
74650;SDS011;63169;46.042;14.592;2023-07-02T04:02:37;15.40;;;10.57;;
74650;SDS011;63169;46.042;14.592;2023-07-02T04:05:03;17.20;;;9.63;;
74650;SDS011;63169;46.042;14.592;2023-07-02T04:07:29;16.85;;;10.52;;
74650;SDS011;63169;46.042;14.592;2023-07-02T04:12:20;15.93;;;9.13;;
74650;SDS011;63169;46.042;14.592;2023-07-02T04:14:45;14.52;;;8.73;;
74650;SDS011;63169;46.042;14.592;2023-07-02T04:17:11;15.30;;;9.23;;
74650;SDS011;63169;46.042;14.592;2023-07-02T04:19:36;15.45;;;9.63;;
74650;SDS011;63169;46.042;14.592;2023-07-02T04:22:01;15.50;;;8.77;;
74650;SDS011;63169;46.042;14.592;2023-07-02T04:24:27;13.52;;;8.93;;
74650;SDS011;63169;46.042;14.592;2023-07-02T04:26:53;15.48;;;9.27;;
74650;SDS011;63169;46.042;14.592;2023-07-02T04:29:18;14.48;;;8.75;;
74650;SDS011;63169;46.042;14.592;2023-07-02T04:31:44;12.95;;;8.90;;
74650;SDS011;63169;46.042;14.592;2023-07-02T04:34:09;12.85;;;7.15;;
74650;SDS011;63169;46.042;14.592;2023-07-02T04:36:34;13.88;;;8.45;;
74650;SDS011;63169;46.042;14.592;2023-07-02T04:39:00;13.80;;;7.35;;
74650;SDS011;63169;46.042;14.592;2023-07-02T04:41:26;15.02;;;8.35;;
74650;SDS011;63169;46.042;14.592;2023-07-02T04:43:51;13.25;;;7.03;;
74650;SDS011;63169;46.042;14.592;2023-07-02T04:46:17;12.77;;;7.53;;
74650;SDS011;63169;46.042;14.592;2023-07-02T04:48:43;12.68;;;7.45;;
74650;SDS011;63169;46.042;14.592;2023-07-02T04:51:08;13.70;;;8.00;;
74650;SDS011;63169;46.042;14.592;2023-07-02T04:53:33;16.48;;;8.40;;
74650;SDS011;63169;46.042;14.592;2023-07-02T04:55:59;15.27;;;8.07;;
74650;SDS011;63169;46.042;14.592;2023-07-02T04:58:24;16.60;;;9.35;;
74650;SDS011;63169;46.042;14.592;2023-07-02T05:00:50;15.10;;;8.60;;
74650;SDS011;63169;46.042;14.592;2023-07-02T05:03:15;14.00;;;9.02;;
74650;SDS011;63169;46.042;14.592;2023-07-02T05:05:40;16.63;;;8.80;;
74650;SDS011;63169;46.042;14.592;2023-07-02T05:08:06;13.30;;;8.65;;
74650;SDS011;63169;46.042;14.592;2023-07-02T05:10:31;16.42;;;9.38;;
74650;SDS011;63169;46.042;14.592;2023-07-02T05:12:57;14.35;;;8.45;;
74650;SDS011;63169;46.042;14.592;2023-07-02T05:15:23;14.52;;;9.02;;
74650;SDS011;63169;46.042;14.592;2023-07-02T05:17:48;15.23;;;8.15;;
74650;SDS011;63169;46.042;14.592;2023-07-02T05:20:14;15.50;;;9.20;;
74650;SDS011;63169;46.042;14.592;2023-07-02T05:22:39;14.10;;;8.98;;
74650;SDS011;63169;46.042;14.592;2023-07-02T05:25:05;13.18;;;7.53;;
74650;SDS011;63169;46.042;14.592;2023-07-02T05:27:30;13.68;;;8.60;;
74650;SDS011;63169;46.042;14.592;2023-07-02T05:29:56;14.95;;;8.77;;
74650;SDS011;63169;46.042;14.592;2023-07-02T05:32:21;14.55;;;9.10;;
74650;SDS011;63169;46.042;14.592;2023-07-02T05:34:46;12.52;;;7.53;;
74650;SDS011;63169;46.042;14.592;2023-07-02T05:37:12;11.98;;;8.07;;
74650;SDS011;63169;46.042;14.592;2023-07-02T05:39:37;13.02;;;8.75;;
74650;SDS011;63169;46.042;14.592;2023-07-02T05:42:03;10.80;;;7.78;;
74650;SDS011;63169;46.042;14.592;2023-07-02T05:46:54;13.53;;;7.57;;
74650;SDS011;63169;46.042;14.592;2023-07-02T05:49:19;11.63;;;8.05;;
74650;SDS011;63169;46.042;14.592;2023-07-02T05:51:45;11.40;;;7.53;;
74650;SDS011;63169;46.042;14.592;2023-07-02T05:54:10;9.68;;;6.88;;
74650;SDS011;63169;46.042;14.592;2023-07-02T05:56:35;11.07;;;8.88;;
74650;SDS011;63169;46.042;14.592;2023-07-02T06:01:26;11.67;;;7.00;;
74650;SDS011;63169;46.042;14.592;2023-07-02T06:03:51;12.02;;;6.90;;
74650;SDS011;63169;46.042;14.592;2023-07-02T06:06:17;13.05;;;7.78;;
74650;SDS011;63169;46.042;14.592;2023-07-02T06:08:42;13.65;;;7.78;;
74650;SDS011;63169;46.042;14.592;2023-07-02T06:11:08;11.98;;;7.35;;
74650;SDS011;63169;46.042;14.592;2023-07-02T06:13:34;12.43;;;7.32;;
74650;SDS011;63169;46.042;14.592;2023-07-02T06:18:25;13.23;;;7.95;;
74650;SDS011;63169;46.042;14.592;2023-07-02T06:20:50;13.30;;;6.72;;
74650;SDS011;63169;46.042;14.592;2023-07-02T06:23:16;16.00;;;9.10;;
74650;SDS011;63169;46.042;14.592;2023-07-02T06:28:07;11.03;;;7.00;;
74650;SDS011;63169;46.042;14.592;2023-07-02T06:30:32;16.40;;;8.02;;
74650;SDS011;63169;46.042;14.592;2023-07-02T06:32:57;13.40;;;8.63;;
74650;SDS011;63169;46.042;14.592;2023-07-02T06:35:23;16.00;;;9.73;;
74650;SDS011;63169;46.042;14.592;2023-07-02T06:37:48;15.32;;;9.68;;
74650;SDS011;63169;46.042;14.592;2023-07-02T06:42:39;11.40;;;7.50;;
74650;SDS011;63169;46.042;14.592;2023-07-02T06:47:30;12.70;;;7.10;;
74650;SDS011;63169;46.042;14.592;2023-07-02T06:49:56;13.02;;;8.15;;
74650;SDS011;63169;46.042;14.592;2023-07-02T06:52:21;10.55;;;6.40;;
74650;SDS011;63169;46.042;14.592;2023-07-02T06:57:15;12.73;;;7.97;;
74650;SDS011;63169;46.042;14.592;2023-07-02T06:59:40;13.38;;;7.05;;
74650;SDS011;63169;46.042;14.592;2023-07-02T07:02:06;12.38;;;7.50;;
74650;SDS011;63169;46.042;14.592;2023-07-02T07:04:31;14.20;;;8.50;;
74650;SDS011;63169;46.042;14.592;2023-07-02T07:09:22;10.27;;;6.50;;
74650;SDS011;63169;46.042;14.592;2023-07-02T07:11:47;9.93;;;6.43;;
74650;SDS011;63169;46.042;14.592;2023-07-02T07:16:38;13.53;;;6.13;;
74650;SDS011;63169;46.042;14.592;2023-07-02T07:19:04;13.27;;;6.65;;
74650;SDS011;63169;46.042;14.592;2023-07-02T07:23:54;11.20;;;7.77;;
74650;SDS011;63169;46.042;14.592;2023-07-02T07:26:20;10.07;;;5.75;;
74650;SDS011;63169;46.042;14.592;2023-07-02T07:28:45;10.05;;;5.63;;
74650;SDS011;63169;46.042;14.592;2023-07-02T07:33:36;8.70;;;5.30;;
74650;SDS011;63169;46.042;14.592;2023-07-02T07:36:01;10.20;;;6.45;;
74650;SDS011;63169;46.042;14.592;2023-07-02T07:40:52;10.93;;;4.67;;
74650;SDS011;63169;46.042;14.592;2023-07-02T07:43:17;8.35;;;4.88;;
74650;SDS011;63169;46.042;14.592;2023-07-02T07:48:08;7.80;;;5.22;;
74650;SDS011;63169;46.042;14.592;2023-07-02T07:52:58;9.90;;;5.33;;
74650;SDS011;63169;46.042;14.592;2023-07-02T07:57:49;7.90;;;4.80;;
74650;SDS011;63169;46.042;14.592;2023-07-02T08:02:42;9.13;;;5.55;;
74650;SDS011;63169;46.042;14.592;2023-07-02T08:05:10;7.57;;;5.45;;
74650;SDS011;63169;46.042;14.592;2023-07-02T08:07:36;7.97;;;6.15;;
74650;SDS011;63169;46.042;14.592;2023-07-02T08:10:01;8.55;;;5.45;;
74650;SDS011;63169;46.042;14.592;2023-07-02T08:12:30;7.97;;;5.05;;
74650;SDS011;63169;46.042;14.592;2023-07-02T08:17:20;6.50;;;3.97;;
74650;SDS011;63169;46.042;14.592;2023-07-02T08:19:46;6.60;;;4.18;;
74650;SDS011;63169;46.042;14.592;2023-07-02T08:22:12;7.72;;;4.57;;
74650;SDS011;63169;46.042;14.592;2023-07-02T08:24:37;7.55;;;4.07;;
74650;SDS011;63169;46.042;14.592;2023-07-02T08:27:03;7.30;;;3.88;;
74650;SDS011;63169;46.042;14.592;2023-07-02T08:29:31;7.88;;;4.28;;
74650;SDS011;63169;46.042;14.592;2023-07-02T08:31:57;7.80;;;5.47;;
74650;SDS011;63169;46.042;14.592;2023-07-02T08:34:22;6.13;;;3.40;;
74650;SDS011;63169;46.042;14.592;2023-07-02T08:36:48;8.52;;;4.40;;
74650;SDS011;63169;46.042;14.592;2023-07-02T08:39:14;6.22;;;3.97;;
74650;SDS011;63169;46.042;14.592;2023-07-02T08:41:46;6.50;;;4.35;;
74650;SDS011;63169;46.042;14.592;2023-07-02T08:44:12;7.25;;;3.60;;
74650;SDS011;63169;46.042;14.592;2023-07-02T08:46:41;6.28;;;3.63;;
74650;SDS011;63169;46.042;14.592;2023-07-02T08:49:07;7.45;;;4.65;;
74650;SDS011;63169;46.042;14.592;2023-07-02T08:51:33;7.35;;;3.67;;
74650;SDS011;63169;46.042;14.592;2023-07-02T08:53:58;7.88;;;4.65;;
74650;SDS011;63169;46.042;14.592;2023-07-02T08:56:24;5.60;;;4.50;;
74650;SDS011;63169;46.042;14.592;2023-07-02T08:58:51;6.93;;;4.75;;
74650;SDS011;63169;46.042;14.592;2023-07-02T09:01:16;6.85;;;3.67;;
74650;SDS011;63169;46.042;14.592;2023-07-02T09:03:42;7.30;;;3.67;;
74650;SDS011;63169;46.042;14.592;2023-07-02T09:06:08;8.48;;;4.35;;
74650;SDS011;63169;46.042;14.592;2023-07-02T09:08:34;8.40;;;4.47;;
74650;SDS011;63169;46.042;14.592;2023-07-02T09:11:13;8.38;;;3.78;;
74650;SDS011;63169;46.042;14.592;2023-07-02T09:21:28;5.47;;;3.20;;
74650;SDS011;63169;46.042;14.592;2023-07-02T09:24:11;4.75;;;3.10;;
74650;SDS011;63169;46.042;14.592;2023-07-02T09:26:46;5.88;;;4.05;;
74650;SDS011;63169;46.042;14.592;2023-07-02T09:29:16;5.35;;;3.08;;
74650;SDS011;63169;46.042;14.592;2023-07-02T09:31:44;5.70;;;4.43;;
74650;SDS011;63169;46.042;14.592;2023-07-02T09:34:13;6.78;;;3.60;;
74650;SDS011;63169;46.042;14.592;2023-07-02T09:36:38;5.40;;;3.40;;
74650;SDS011;63169;46.042;14.592;2023-07-02T09:39:28;5.53;;;4.03;;
74650;SDS011;63169;46.042;14.592;2023-07-02T09:41:54;5.82;;;4.07;;
74650;SDS011;63169;46.042;14.592;2023-07-02T09:44:21;6.10;;;3.97;;
74650;SDS011;63169;46.042;14.592;2023-07-02T09:46:56;6.90;;;4.15;;
74650;SDS011;63169;46.042;14.592;2023-07-02T09:49:25;5.72;;;3.28;;
74650;SDS011;63169;46.042;14.592;2023-07-02T09:51:51;5.60;;;3.78;;
74650;SDS011;63169;46.042;14.592;2023-07-02T09:54:16;5.55;;;4.65;;
74650;SDS011;63169;46.042;14.592;2023-07-02T09:56:45;5.57;;;3.30;;
74650;SDS011;63169;46.042;14.592;2023-07-02T09:59:10;5.82;;;4.25;;
74650;SDS011;63169;46.042;14.592;2023-07-02T10:01:36;6.05;;;3.33;;
74650;SDS011;63169;46.042;14.592;2023-07-02T10:04:14;5.75;;;3.30;;
74650;SDS011;63169;46.042;14.592;2023-07-02T10:09:11;6.07;;;3.45;;
74650;SDS011;63169;46.042;14.592;2023-07-02T10:11:36;7.03;;;3.38;;
74650;SDS011;63169;46.042;14.592;2023-07-02T10:14:02;7.30;;;6.00;;
74650;SDS011;63169;46.042;14.592;2023-07-02T10:16:27;7.05;;;3.47;;
74650;SDS011;63169;46.042;14.592;2023-07-02T10:18:56;6.22;;;4.55;;
74650;SDS011;63169;46.042;14.592;2023-07-02T10:21:35;6.68;;;4.68;;
74650;SDS011;63169;46.042;14.592;2023-07-02T10:24:13;8.30;;;3.38;;
74650;SDS011;63169;46.042;14.592;2023-07-02T10:26:51;6.22;;;3.60;;
74650;SDS011;63169;46.042;14.592;2023-07-02T10:29:20;6.22;;;3.92;;
74650;SDS011;63169;46.042;14.592;2023-07-02T10:31:55;7.82;;;3.63;;
74650;SDS011;63169;46.042;14.592;2023-07-02T10:34:34;6.57;;;3.78;;
74650;SDS011;63169;46.042;14.592;2023-07-02T10:37:00;5.97;;;4.80;;
74650;SDS011;63169;46.042;14.592;2023-07-02T10:39:26;6.07;;;3.90;;
74650;SDS011;63169;46.042;14.592;2023-07-02T10:41:51;5.85;;;3.45;;
74650;SDS011;63169;46.042;14.592;2023-07-02T10:44:17;6.80;;;5.03;;
74650;SDS011;63169;46.042;14.592;2023-07-02T10:46:43;7.68;;;4.50;;
74650;SDS011;63169;46.042;14.592;2023-07-02T10:49:11;7.60;;;4.05;;
74650;SDS011;63169;46.042;14.592;2023-07-02T10:51:37;9.35;;;3.80;;
74650;SDS011;63169;46.042;14.592;2023-07-02T10:54:03;5.55;;;3.45;;
74650;SDS011;63169;46.042;14.592;2023-07-02T10:56:29;6.28;;;3.58;;
74650;SDS011;63169;46.042;14.592;2023-07-02T10:58:55;6.43;;;3.95;;
74650;SDS011;63169;46.042;14.592;2023-07-02T11:04:03;7.30;;;4.18;;
74650;SDS011;63169;46.042;14.592;2023-07-02T11:06:30;6.55;;;3.05;;
74650;SDS011;63169;46.042;14.592;2023-07-02T11:08:57;6.50;;;2.63;;
74650;SDS011;63169;46.042;14.592;2023-07-02T11:11:23;6.15;;;3.25;;
74650;SDS011;63169;46.042;14.592;2023-07-02T11:13:49;5.80;;;3.08;;
74650;SDS011;63169;46.042;14.592;2023-07-02T11:18:43;7.68;;;2.67;;
74650;SDS011;63169;46.042;14.592;2023-07-02T11:21:12;5.60;;;2.75;;
74650;SDS011;63169;46.042;14.592;2023-07-02T11:23:37;4.88;;;2.92;;
74650;SDS011;63169;46.042;14.592;2023-07-02T11:26:02;5.60;;;2.80;;
74650;SDS011;63169;46.042;14.592;2023-07-02T11:28:29;5.93;;;3.97;;
74650;SDS011;63169;46.042;14.592;2023-07-02T11:30:55;4.97;;;2.70;;
74650;SDS011;63169;46.042;14.592;2023-07-02T11:33:54;4.55;;;2.33;;
74650;SDS011;63169;46.042;14.592;2023-07-02T11:36:19;4.85;;;2.22;;
74650;SDS011;63169;46.042;14.592;2023-07-02T11:38:49;5.13;;;2.95;;
74650;SDS011;63169;46.042;14.592;2023-07-02T11:41:15;4.78;;;2.08;;
74650;SDS011;63169;46.042;14.592;2023-07-02T11:43:40;4.95;;;2.53;;
74650;SDS011;63169;46.042;14.592;2023-07-02T11:46:06;3.70;;;1.95;;
74650;SDS011;63169;46.042;14.592;2023-07-02T11:48:31;3.80;;;1.65;;
74650;SDS011;63169;46.042;14.592;2023-07-02T11:50:56;14.32;;;2.42;;
74650;SDS011;63169;46.042;14.592;2023-07-02T11:53:22;3.65;;;2.05;;
74650;SDS011;63169;46.042;14.592;2023-07-02T11:55:47;4.00;;;1.80;;
74650;SDS011;63169;46.042;14.592;2023-07-02T11:58:13;6.38;;;3.30;;
74650;SDS011;63169;46.042;14.592;2023-07-02T12:00:38;5.72;;;2.63;;
74650;SDS011;63169;46.042;14.592;2023-07-02T12:03:03;4.53;;;1.92;;
74650;SDS011;63169;46.042;14.592;2023-07-02T12:05:29;4.45;;;2.50;;
74650;SDS011;63169;46.042;14.592;2023-07-02T12:07:54;4.75;;;3.70;;
74650;SDS011;63169;46.042;14.592;2023-07-02T12:10:20;4.78;;;2.47;;
74650;SDS011;63169;46.042;14.592;2023-07-02T12:12:45;4.18;;;2.20;;
74650;SDS011;63169;46.042;14.592;2023-07-02T12:15:10;5.88;;;2.10;;
74650;SDS011;63169;46.042;14.592;2023-07-02T12:17:36;5.50;;;2.58;;
74650;SDS011;63169;46.042;14.592;2023-07-02T12:20:01;5.68;;;2.35;;
74650;SDS011;63169;46.042;14.592;2023-07-02T12:22:26;4.85;;;3.25;;
74650;SDS011;63169;46.042;14.592;2023-07-02T12:24:52;5.72;;;2.83;;
74650;SDS011;63169;46.042;14.592;2023-07-02T12:27:20;4.75;;;2.78;;
74650;SDS011;63169;46.042;14.592;2023-07-02T12:29:46;5.90;;;4.10;;
74650;SDS011;63169;46.042;14.592;2023-07-02T12:32:13;4.50;;;2.45;;
74650;SDS011;63169;46.042;14.592;2023-07-02T12:34:39;4.95;;;2.15;;
74650;SDS011;63169;46.042;14.592;2023-07-02T12:37:04;5.28;;;3.25;;
74650;SDS011;63169;46.042;14.592;2023-07-02T12:39:30;4.30;;;2.78;;
74650;SDS011;63169;46.042;14.592;2023-07-02T12:41:55;4.88;;;2.38;;
74650;SDS011;63169;46.042;14.592;2023-07-02T12:44:20;6.53;;;2.28;;
74650;SDS011;63169;46.042;14.592;2023-07-02T12:46:46;4.57;;;2.50;;
74650;SDS011;63169;46.042;14.592;2023-07-02T12:49:11;4.88;;;2.08;;
74650;SDS011;63169;46.042;14.592;2023-07-02T12:51:38;4.47;;;2.42;;
74650;SDS011;63169;46.042;14.592;2023-07-02T12:54:03;4.28;;;2.35;;
74650;SDS011;63169;46.042;14.592;2023-07-02T12:56:28;3.83;;;2.38;;
74650;SDS011;63169;46.042;14.592;2023-07-02T12:58:54;3.97;;;2.72;;
74650;SDS011;63169;46.042;14.592;2023-07-02T13:01:19;5.20;;;3.33;;
74650;SDS011;63169;46.042;14.592;2023-07-02T13:03:45;5.15;;;1.80;;
74650;SDS011;63169;46.042;14.592;2023-07-02T13:06:12;3.97;;;2.25;;
74650;SDS011;63169;46.042;14.592;2023-07-02T13:08:38;4.30;;;2.60;;
74650;SDS011;63169;46.042;14.592;2023-07-02T13:11:03;3.88;;;2.17;;
74650;SDS011;63169;46.042;14.592;2023-07-02T13:13:29;4.55;;;2.97;;
74650;SDS011;63169;46.042;14.592;2023-07-02T13:15:54;4.93;;;2.05;;
74650;SDS011;63169;46.042;14.592;2023-07-02T13:18:19;5.82;;;2.53;;
74650;SDS011;63169;46.042;14.592;2023-07-02T13:20:45;4.28;;;2.95;;
74650;SDS011;63169;46.042;14.592;2023-07-02T13:23:10;9.10;;;2.70;;
74650;SDS011;63169;46.042;14.592;2023-07-02T13:25:36;4.10;;;3.03;;
74650;SDS011;63169;46.042;14.592;2023-07-02T13:28:01;4.88;;;2.78;;
74650;SDS011;63169;46.042;14.592;2023-07-02T13:30:27;4.15;;;2.00;;
74650;SDS011;63169;46.042;14.592;2023-07-02T13:32:53;4.35;;;2.28;;
74650;SDS011;63169;46.042;14.592;2023-07-02T13:35:19;4.18;;;2.20;;
74650;SDS011;63169;46.042;14.592;2023-07-02T13:37:45;4.60;;;2.63;;
74650;SDS011;63169;46.042;14.592;2023-07-02T13:40:10;3.20;;;1.67;;
74650;SDS011;63169;46.042;14.592;2023-07-02T13:42:38;4.53;;;3.42;;
74650;SDS011;63169;46.042;14.592;2023-07-02T13:45:03;5.13;;;3.17;;
74650;SDS011;63169;46.042;14.592;2023-07-02T13:47:29;3.50;;;1.80;;
74650;SDS011;63169;46.042;14.592;2023-07-02T13:49:54;3.55;;;2.15;;
74650;SDS011;63169;46.042;14.592;2023-07-02T13:52:20;2.97;;;1.38;;
74650;SDS011;63169;46.042;14.592;2023-07-02T13:54:45;3.13;;;2.00;;
74650;SDS011;63169;46.042;14.592;2023-07-02T13:57:10;3.97;;;2.33;;
74650;SDS011;63169;46.042;14.592;2023-07-02T13:59:36;4.00;;;2.25;;
74650;SDS011;63169;46.042;14.592;2023-07-02T14:02:01;3.42;;;1.73;;
74650;SDS011;63169;46.042;14.592;2023-07-02T14:04:26;8.10;;;2.08;;
74650;SDS011;63169;46.042;14.592;2023-07-02T14:06:52;5.45;;;2.10;;
74650;SDS011;63169;46.042;14.592;2023-07-02T14:09:19;8.85;;;2.22;;
74650;SDS011;63169;46.042;14.592;2023-07-02T14:11:45;4.45;;;2.58;;
74650;SDS011;63169;46.042;14.592;2023-07-02T14:14:10;3.83;;;1.90;;
74650;SDS011;63169;46.042;14.592;2023-07-02T14:16:36;4.10;;;1.95;;
74650;SDS011;63169;46.042;14.592;2023-07-02T14:19:01;3.75;;;2.03;;
74650;SDS011;63169;46.042;14.592;2023-07-02T14:21:26;4.03;;;1.73;;
74650;SDS011;63169;46.042;14.592;2023-07-02T14:23:52;5.10;;;1.40;;
74650;SDS011;63169;46.042;14.592;2023-07-02T14:26:17;8.57;;;6.65;;
74650;SDS011;63169;46.042;14.592;2023-07-02T14:28:43;5.95;;;3.55;;
74650;SDS011;63169;46.042;14.592;2023-07-02T14:31:08;5.07;;;2.75;;
74650;SDS011;63169;46.042;14.592;2023-07-02T14:33:34;5.78;;;2.60;;
74650;SDS011;63169;46.042;14.592;2023-07-02T14:36:01;5.35;;;2.38;;
74650;SDS011;63169;46.042;14.592;2023-07-02T14:38:26;7.45;;;2.53;;
74650;SDS011;63169;46.042;14.592;2023-07-02T14:40:53;5.10;;;2.90;;
74650;SDS011;63169;46.042;14.592;2023-07-02T14:43:19;5.93;;;2.83;;
74650;SDS011;63169;46.042;14.592;2023-07-02T14:45:49;5.35;;;2.80;;
74650;SDS011;63169;46.042;14.592;2023-07-02T14:48:16;5.20;;;2.40;;
74650;SDS011;63169;46.042;14.592;2023-07-02T14:50:45;3.65;;;1.92;;
74650;SDS011;63169;46.042;14.592;2023-07-02T14:53:13;4.35;;;1.75;;
74650;SDS011;63169;46.042;14.592;2023-07-02T14:55:39;8.10;;;1.88;;
74650;SDS011;63169;46.042;14.592;2023-07-02T14:58:05;4.30;;;2.25;;
74650;SDS011;63169;46.042;14.592;2023-07-02T15:00:30;3.40;;;1.73;;
74650;SDS011;63169;46.042;14.592;2023-07-02T15:02:57;4.45;;;1.73;;
74650;SDS011;63169;46.042;14.592;2023-07-02T15:05:22;4.18;;;2.13;;
74650;SDS011;63169;46.042;14.592;2023-07-02T15:07:48;4.57;;;2.20;;
74650;SDS011;63169;46.042;14.592;2023-07-02T15:10:13;4.88;;;2.10;;
74650;SDS011;63169;46.042;14.592;2023-07-02T15:12:38;5.95;;;2.15;;
74650;SDS011;63169;46.042;14.592;2023-07-02T15:15:04;5.35;;;2.47;;
74650;SDS011;63169;46.042;14.592;2023-07-02T15:17:30;5.13;;;2.17;;
74650;SDS011;63169;46.042;14.592;2023-07-02T15:19:55;3.83;;;2.08;;
74650;SDS011;63169;46.042;14.592;2023-07-02T15:22:21;4.20;;;2.22;;
74650;SDS011;63169;46.042;14.592;2023-07-02T15:24:46;5.72;;;2.58;;
74650;SDS011;63169;46.042;14.592;2023-07-02T15:27:11;8.38;;;2.78;;
74650;SDS011;63169;46.042;14.592;2023-07-02T15:29:37;5.65;;;2.35;;
74650;SDS011;63169;46.042;14.592;2023-07-02T15:32:02;3.60;;;1.60;;
74650;SDS011;63169;46.042;14.592;2023-07-02T15:34:28;4.45;;;2.45;;
74650;SDS011;63169;46.042;14.592;2023-07-02T15:36:53;4.88;;;2.90;;
74650;SDS011;63169;46.042;14.592;2023-07-02T15:39:19;6.13;;;2.50;;
74650;SDS011;63169;46.042;14.592;2023-07-02T15:41:47;4.70;;;3.50;;
74650;SDS011;63169;46.042;14.592;2023-07-02T15:44:13;4.45;;;1.83;;
74650;SDS011;63169;46.042;14.592;2023-07-02T15:46:38;4.45;;;2.30;;